sensor_id;sensor_type;location;lat;lon;timestamp;P1;durP1;ratioP1;P2;durP2;ratioP2
44130;SDS011;29792;48.726;9.248;2023-04-02T00:09:16;0.40;;;0.20;;
44130;SDS011;29792;48.726;9.248;2023-04-02T00:11:47;2.65;;;0.10;;
44130;SDS011;29792;48.726;9.248;2023-04-02T00:14:28;0.30;;;0.10;;
44130;SDS011;29792;48.726;9.248;2023-04-02T00:16:59;0.65;;;0.35;;
44130;SDS011;29792;48.726;9.248;2023-04-02T00:21:59;0.13;;;0.13;;
44130;SDS011;29792;48.726;9.248;2023-04-02T00:24:26;0.80;;;0.68;;
44130;SDS011;29792;48.726;9.248;2023-04-02T00:26:52;0.10;;;0.10;;
44130;SDS011;29792;48.726;9.248;2023-04-02T00:29:19;0.65;;;0.17;;
44130;SDS011;29792;48.726;9.248;2023-04-02T00:31:45;0.10;;;0.10;;
44130;SDS011;29792;48.726;9.248;2023-04-02T00:34:30;1.00;;;0.20;;
44130;SDS011;29792;48.726;9.248;2023-04-02T00:36:57;0.45;;;0.20;;
44130;SDS011;29792;48.726;9.248;2023-04-02T00:39:27;0.98;;;0.35;;
44130;SDS011;29792;48.726;9.248;2023-04-02T00:41:55;0.15;;;0.15;;
44130;SDS011;29792;48.726;9.248;2023-04-02T00:44:31;0.20;;;0.20;;
44130;SDS011;29792;48.726;9.248;2023-04-02T00:47:03;0.10;;;0.10;;
44130;SDS011;29792;48.726;9.248;2023-04-02T00:49:39;2.25;;;0.20;;
44130;SDS011;29792;48.726;9.248;2023-04-02T00:52:06;0.28;;;0.10;;
44130;SDS011;29792;48.726;9.248;2023-04-02T00:54:41;0.28;;;0.10;;
44130;SDS011;29792;48.726;9.248;2023-04-02T00:57:12;0.10;;;0.10;;
44130;SDS011;29792;48.726;9.248;2023-04-02T00:59:59;0.13;;;0.10;;
44130;SDS011;29792;48.726;9.248;2023-04-02T01:02:33;1.10;;;0.20;;
44130;SDS011;29792;48.726;9.248;2023-04-02T01:07:47;0.17;;;0.05;;
44130;SDS011;29792;48.726;9.248;2023-04-02T01:10:37;0.00;;;0.00;;
44130;SDS011;29792;48.726;9.248;2023-04-02T01:13:08;0.00;;;0.00;;
44130;SDS011;29792;48.726;9.248;2023-04-02T01:15:56;1.20;;;0.10;;
44130;SDS011;29792;48.726;9.248;2023-04-02T01:18:56;0.00;;;0.00;;
44130;SDS011;29792;48.726;9.248;2023-04-02T01:24:31;0.13;;;0.03;;
44130;SDS011;29792;48.726;9.248;2023-04-02T01:29:36;0.17;;;0.17;;
44130;SDS011;29792;48.726;9.248;2023-04-02T01:32:09;0.82;;;0.10;;
44130;SDS011;29792;48.726;9.248;2023-04-02T01:34:37;0.52;;;0.25;;
44130;SDS011;29792;48.726;9.248;2023-04-02T01:37:18;0.25;;;0.10;;
44130;SDS011;29792;48.726;9.248;2023-04-02T01:42:49;0.05;;;0.05;;
44130;SDS011;29792;48.726;9.248;2023-04-02T01:45:19;0.52;;;0.45;;
44130;SDS011;29792;48.726;9.248;2023-04-02T01:47:46;0.10;;;0.10;;
44130;SDS011;29792;48.726;9.248;2023-04-02T01:52:42;1.10;;;0.10;;
44130;SDS011;29792;48.726;9.248;2023-04-02T01:55:10;0.20;;;0.10;;
44130;SDS011;29792;48.726;9.248;2023-04-02T01:57:38;0.00;;;0.00;;
44130;SDS011;29792;48.726;9.248;2023-04-02T02:00:06;1.15;;;0.10;;
44130;SDS011;29792;48.726;9.248;2023-04-02T02:02:37;0.10;;;0.10;;
44130;SDS011;29792;48.726;9.248;2023-04-02T02:05:02;0.20;;;0.20;;
44130;SDS011;29792;48.726;9.248;2023-04-02T02:07:28;0.85;;;0.10;;
44130;SDS011;29792;48.726;9.248;2023-04-02T02:09:54;0.10;;;0.10;;
44130;SDS011;29792;48.726;9.248;2023-04-02T02:12:20;0.65;;;0.10;;
44130;SDS011;29792;48.726;9.248;2023-04-02T02:14:46;0.60;;;0.20;;
44130;SDS011;29792;48.726;9.248;2023-04-02T02:17:17;0.32;;;0.20;;
44130;SDS011;29792;48.726;9.248;2023-04-02T02:19:51;2.50;;;0.20;;
44130;SDS011;29792;48.726;9.248;2023-04-02T02:22:25;0.20;;;0.20;;
44130;SDS011;29792;48.726;9.248;2023-04-02T02:24:55;0.30;;;0.10;;
44130;SDS011;29792;48.726;9.248;2023-04-02T02:29:48;0.30;;;0.20;;
44130;SDS011;29792;48.726;9.248;2023-04-02T02:32:19;0.85;;;0.35;;
44130;SDS011;29792;48.726;9.248;2023-04-02T02:34:48;0.60;;;0.20;;
44130;SDS011;29792;48.726;9.248;2023-04-02T02:37:23;0.47;;;0.20;;
44130;SDS011;29792;48.726;9.248;2023-04-02T02:39:53;0.82;;;0.20;;
44130;SDS011;29792;48.726;9.248;2023-04-02T02:42:23;0.10;;;0.10;;
44130;SDS011;29792;48.726;9.248;2023-04-02T02:44:55;0.80;;;0.43;;
44130;SDS011;29792;48.726;9.248;2023-04-02T02:47:28;0.52;;;0.22;;
44130;SDS011;29792;48.726;9.248;2023-04-02T02:52:25;1.02;;;0.20;;
44130;SDS011;29792;48.726;9.248;2023-04-02T02:55:02;0.38;;;0.28;;
44130;SDS011;29792;48.726;9.248;2023-04-02T02:57:33;0.25;;;0.25;;
44130;SDS011;29792;48.726;9.248;2023-04-02T03:00:02;0.55;;;0.30;;
44130;SDS011;29792;48.726;9.248;2023-04-02T03:02:31;0.93;;;0.30;;
44130;SDS011;29792;48.726;9.248;2023-04-02T03:05:02;0.55;;;0.25;;
44130;SDS011;29792;48.726;9.248;2023-04-02T03:07:28;0.40;;;0.40;;
44130;SDS011;29792;48.726;9.248;2023-04-02T03:18:33;1.20;;;0.20;;
44130;SDS011;29792;48.726;9.248;2023-04-02T03:21:47;0.60;;;0.60;;
44130;SDS011;29792;48.726;9.248;2023-04-02T03:23:53;0.55;;;0.30;;
44130;SDS011;29792;48.726;9.248;2023-04-02T03:26:24;0.43;;;0.43;;
44130;SDS011;29792;48.726;9.248;2023-04-02T03:29:28;2.63;;;0.40;;
44130;SDS011;29792;48.726;9.248;2023-04-02T03:32:06;1.17;;;0.30;;
44130;SDS011;29792;48.726;9.248;2023-04-02T03:34:41;1.02;;;0.35;;
44130;SDS011;29792;48.726;9.248;2023-04-02T03:37:13;0.77;;;0.40;;
44130;SDS011;29792;48.726;9.248;2023-04-02T03:39:44;1.02;;;0.30;;
44130;SDS011;29792;48.726;9.248;2023-04-02T03:42:17;0.95;;;0.85;;
44130;SDS011;29792;48.726;9.248;2023-04-02T03:47:41;0.75;;;0.30;;
44130;SDS011;29792;48.726;9.248;2023-04-02T03:50:17;0.60;;;0.60;;
44130;SDS011;29792;48.726;9.248;2023-04-02T03:52:50;0.43;;;0.20;;
44130;SDS011;29792;48.726;9.248;2023-04-02T03:55:17;0.57;;;0.40;;
44130;SDS011;29792;48.726;9.248;2023-04-02T04:03:24;0.20;;;0.20;;
44130;SDS011;29792;48.726;9.248;2023-04-02T04:05:57;3.58;;;0.40;;
44130;SDS011;29792;48.726;9.248;2023-04-02T04:08:29;2.15;;;0.70;;
44130;SDS011;29792;48.726;9.248;2023-04-02T04:11:02;0.60;;;0.47;;
44130;SDS011;29792;48.726;9.248;2023-04-02T04:13:38;1.60;;;1.10;;
44130;SDS011;29792;48.726;9.248;2023-04-02T04:16:11;0.85;;;0.45;;
44130;SDS011;29792;48.726;9.248;2023-04-02T04:18:43;1.10;;;0.20;;
44130;SDS011;29792;48.726;9.248;2023-04-02T04:21:20;1.98;;;0.50;;
44130;SDS011;29792;48.726;9.248;2023-04-02T04:23:54;1.65;;;0.40;;
44130;SDS011;29792;48.726;9.248;2023-04-02T04:32:17;1.88;;;0.20;;
44130;SDS011;29792;48.726;9.248;2023-04-02T04:35:02;0.20;;;0.20;;
44130;SDS011;29792;48.726;9.248;2023-04-02T04:37:36;0.85;;;0.35;;
44130;SDS011;29792;48.726;9.248;2023-04-02T04:40:09;0.60;;;0.50;;
44130;SDS011;29792;48.726;9.248;2023-04-02T04:42:41;1.42;;;0.30;;
44130;SDS011;29792;48.726;9.248;2023-04-02T04:48:18;0.95;;;0.50;;
44130;SDS011;29792;48.726;9.248;2023-04-02T04:51:00;1.45;;;0.32;;
44130;SDS011;29792;48.726;9.248;2023-04-02T04:53:30;0.43;;;0.40;;
44130;SDS011;29792;48.726;9.248;2023-04-02T04:55:56;0.98;;;0.45;;
44130;SDS011;29792;48.726;9.248;2023-04-02T04:58:40;0.38;;;0.30;;
44130;SDS011;29792;48.726;9.248;2023-04-02T05:01:11;0.30;;;0.30;;
44130;SDS011;29792;48.726;9.248;2023-04-02T05:06:42;3.40;;;0.40;;
44130;SDS011;29792;48.726;9.248;2023-04-02T05:12:12;2.63;;;0.75;;
44130;SDS011;29792;48.726;9.248;2023-04-02T05:14:59;1.55;;;0.40;;
44130;SDS011;29792;48.726;9.248;2023-04-02T05:17:33;0.38;;;0.32;;
44130;SDS011;29792;48.726;9.248;2023-04-02T05:22:55;1.00;;;0.40;;
44130;SDS011;29792;48.726;9.248;2023-04-02T05:25:30;1.48;;;0.30;;
44130;SDS011;29792;48.726;9.248;2023-04-02T05:28:02;1.08;;;0.40;;
44130;SDS011;29792;48.726;9.248;2023-04-02T05:31:06;0.73;;;0.52;;
44130;SDS011;29792;48.726;9.248;2023-04-02T05:36:04;2.95;;;0.40;;
44130;SDS011;29792;48.726;9.248;2023-04-02T05:38:36;2.25;;;0.50;;
44130;SDS011;29792;48.726;9.248;2023-04-02T05:43:47;0.57;;;0.30;;
44130;SDS011;29792;48.726;9.248;2023-04-02T05:46:16;0.80;;;0.70;;
44130;SDS011;29792;48.726;9.248;2023-04-02T05:48:46;0.50;;;0.40;;
44130;SDS011;29792;48.726;9.248;2023-04-02T05:51:18;0.60;;;0.35;;
44130;SDS011;29792;48.726;9.248;2023-04-02T05:53:53;0.30;;;0.30;;
44130;SDS011;29792;48.726;9.248;2023-04-02T05:56:25;2.42;;;0.30;;
44130;SDS011;29792;48.726;9.248;2023-04-02T06:01:46;1.02;;;0.30;;
44130;SDS011;29792;48.726;9.248;2023-04-02T06:07:14;0.57;;;0.40;;
44130;SDS011;29792;48.726;9.248;2023-04-02T06:15:18;1.23;;;0.55;;
44130;SDS011;29792;48.726;9.248;2023-04-02T06:18:30;1.13;;;0.80;;
44130;SDS011;29792;48.726;9.248;2023-04-02T06:20:40;0.75;;;0.75;;
44130;SDS011;29792;48.726;9.248;2023-04-02T06:23:08;1.00;;;0.90;;
44130;SDS011;29792;48.726;9.248;2023-04-02T06:25:39;0.77;;;0.52;;
44130;SDS011;29792;48.726;9.248;2023-04-02T06:28:07;1.77;;;0.65;;
44130;SDS011;29792;48.726;9.248;2023-04-02T06:30:39;1.50;;;0.88;;
44130;SDS011;29792;48.726;9.248;2023-04-02T06:33:08;1.13;;;0.68;;
44130;SDS011;29792;48.726;9.248;2023-04-02T06:35:37;0.60;;;0.60;;
44130;SDS011;29792;48.726;9.248;2023-04-02T06:38:04;0.85;;;0.50;;
44130;SDS011;29792;48.726;9.248;2023-04-02T06:40:38;1.45;;;0.50;;
44130;SDS011;29792;48.726;9.248;2023-04-02T06:43:16;1.88;;;1.10;;
44130;SDS011;29792;48.726;9.248;2023-04-02T06:45:50;1.65;;;0.60;;
44130;SDS011;29792;48.726;9.248;2023-04-02T06:48:20;2.28;;;0.95;;
44130;SDS011;29792;48.726;9.248;2023-04-02T06:50:53;1.92;;;0.38;;
44130;SDS011;29792;48.726;9.248;2023-04-02T06:53:25;1.10;;;0.40;;
44130;SDS011;29792;48.726;9.248;2023-04-02T06:56:02;1.05;;;0.70;;
44130;SDS011;29792;48.726;9.248;2023-04-02T06:58:34;0.70;;;0.50;;
44130;SDS011;29792;48.726;9.248;2023-04-02T07:01:00;0.60;;;0.50;;
44130;SDS011;29792;48.726;9.248;2023-04-02T07:03:29;1.00;;;0.77;;
44130;SDS011;29792;48.726;9.248;2023-04-02T07:05:55;0.43;;;0.30;;
44130;SDS011;29792;48.726;9.248;2023-04-02T07:08:22;2.50;;;0.50;;
44130;SDS011;29792;48.726;9.248;2023-04-02T07:10:47;3.75;;;0.70;;
44130;SDS011;29792;48.726;9.248;2023-04-02T07:13:17;0.70;;;0.40;;
44130;SDS011;29792;48.726;9.248;2023-04-02T07:15:44;1.67;;;1.15;;
44130;SDS011;29792;48.726;9.248;2023-04-02T07:18:20;2.20;;;0.90;;
44130;SDS011;29792;48.726;9.248;2023-04-02T07:20:57;2.15;;;0.73;;
44130;SDS011;29792;48.726;9.248;2023-04-02T07:23:23;3.03;;;0.82;;
44130;SDS011;29792;48.726;9.248;2023-04-02T07:25:49;2.08;;;0.47;;
44130;SDS011;29792;48.726;9.248;2023-04-02T07:28:16;0.88;;;0.63;;
44130;SDS011;29792;48.726;9.248;2023-04-02T07:30:42;1.65;;;0.45;;
44130;SDS011;29792;48.726;9.248;2023-04-02T07:33:12;1.70;;;0.50;;
44130;SDS011;29792;48.726;9.248;2023-04-02T07:35:38;2.05;;;0.95;;
44130;SDS011;29792;48.726;9.248;2023-04-02T07:38:04;0.85;;;0.38;;
44130;SDS011;29792;48.726;9.248;2023-04-02T07:40:29;1.05;;;0.43;;
44130;SDS011;29792;48.726;9.248;2023-04-02T07:42:55;1.65;;;0.75;;
44130;SDS011;29792;48.726;9.248;2023-04-02T07:45:20;2.45;;;0.70;;
44130;SDS011;29792;48.726;9.248;2023-04-02T07:47:45;0.88;;;0.57;;
44130;SDS011;29792;48.726;9.248;2023-04-02T07:50:10;0.75;;;0.43;;
44130;SDS011;29792;48.726;9.248;2023-04-02T07:52:39;0.45;;;0.20;;
44130;SDS011;29792;48.726;9.248;2023-04-02T07:55:06;1.05;;;0.88;;
44130;SDS011;29792;48.726;9.248;2023-04-02T07:57:36;0.95;;;0.85;;
44130;SDS011;29792;48.726;9.248;2023-04-02T08:00:03;0.65;;;0.40;;
44130;SDS011;29792;48.726;9.248;2023-04-02T08:02:28;0.77;;;0.45;;
44130;SDS011;29792;48.726;9.248;2023-04-02T08:04:54;1.48;;;0.32;;
44130;SDS011;29792;48.726;9.248;2023-04-02T08:07:19;1.15;;;0.52;;
44130;SDS011;29792;48.726;9.248;2023-04-02T08:09:44;1.70;;;0.60;;
44130;SDS011;29792;48.726;9.248;2023-04-02T08:12:11;2.13;;;0.95;;
44130;SDS011;29792;48.726;9.248;2023-04-02T08:14:37;1.05;;;0.32;;
44130;SDS011;29792;48.726;9.248;2023-04-02T08:17:02;1.27;;;0.45;;
44130;SDS011;29792;48.726;9.248;2023-04-02T08:19:28;0.75;;;0.40;;
44130;SDS011;29792;48.726;9.248;2023-04-02T08:21:53;0.52;;;0.40;;
44130;SDS011;29792;48.726;9.248;2023-04-02T08:24:19;2.22;;;0.77;;
44130;SDS011;29792;48.726;9.248;2023-04-02T08:26:46;0.40;;;0.40;;
44130;SDS011;29792;48.726;9.248;2023-04-02T08:29:13;0.60;;;0.38;;
44130;SDS011;29792;48.726;9.248;2023-04-02T08:31:38;0.90;;;0.35;;
44130;SDS011;29792;48.726;9.248;2023-04-02T08:34:04;1.02;;;0.50;;
44130;SDS011;29792;48.726;9.248;2023-04-02T08:36:32;2.80;;;0.88;;
44130;SDS011;29792;48.726;9.248;2023-04-02T08:39:00;2.85;;;0.82;;
44130;SDS011;29792;48.726;9.248;2023-04-02T08:41:26;1.27;;;0.38;;
44130;SDS011;29792;48.726;9.248;2023-04-02T08:46:32;0.43;;;0.20;;
44130;SDS011;29792;48.726;9.248;2023-04-02T08:49:10;0.73;;;0.20;;
44130;SDS011;29792;48.726;9.248;2023-04-02T08:51:38;0.45;;;0.25;;
44130;SDS011;29792;48.726;9.248;2023-04-02T08:54:25;1.17;;;0.32;;
44130;SDS011;29792;48.726;9.248;2023-04-02T08:56:59;0.95;;;0.20;;
44130;SDS011;29792;48.726;9.248;2023-04-02T08:59:31;0.50;;;0.30;;
44130;SDS011;29792;48.726;9.248;2023-04-02T09:04:46;0.77;;;0.77;;
44130;SDS011;29792;48.726;9.248;2023-04-02T09:07:12;0.50;;;0.35;;
44130;SDS011;29792;48.726;9.248;2023-04-02T09:09:40;0.30;;;0.20;;
44130;SDS011;29792;48.726;9.248;2023-04-02T09:12:14;1.63;;;0.55;;
44130;SDS011;29792;48.726;9.248;2023-04-02T09:14:55;2.47;;;1.15;;
44130;SDS011;29792;48.726;9.248;2023-04-02T09:17:30;0.32;;;0.20;;
44130;SDS011;29792;48.726;9.248;2023-04-02T09:22:46;0.77;;;0.30;;
44130;SDS011;29792;48.726;9.248;2023-04-02T09:25:22;1.50;;;0.30;;
44130;SDS011;29792;48.726;9.248;2023-04-02T09:27:51;0.57;;;0.35;;
44130;SDS011;29792;48.726;9.248;2023-04-02T09:32:57;1.42;;;0.75;;
44130;SDS011;29792;48.726;9.248;2023-04-02T09:35:27;2.55;;;1.38;;
44130;SDS011;29792;48.726;9.248;2023-04-02T09:40:45;0.65;;;0.60;;
44130;SDS011;29792;48.726;9.248;2023-04-02T09:43:13;1.55;;;0.80;;
44130;SDS011;29792;48.726;9.248;2023-04-02T09:45:40;6.30;;;3.83;;
44130;SDS011;29792;48.726;9.248;2023-04-02T09:48:21;4.93;;;2.58;;
44130;SDS011;29792;48.726;9.248;2023-04-02T09:51:02;2.03;;;0.95;;
44130;SDS011;29792;48.726;9.248;2023-04-02T09:53:38;0.40;;;0.40;;
44130;SDS011;29792;48.726;9.248;2023-04-02T09:56:20;2.10;;;0.70;;
44130;SDS011;29792;48.726;9.248;2023-04-02T10:01:40;0.57;;;0.35;;
44130;SDS011;29792;48.726;9.248;2023-04-02T10:04:51;1.05;;;0.68;;
44130;SDS011;29792;48.726;9.248;2023-04-02T10:12:47;4.50;;;1.60;;
44130;SDS011;29792;48.726;9.248;2023-04-02T10:15:23;1.77;;;1.20;;
44130;SDS011;29792;48.726;9.248;2023-04-02T10:17:59;2.72;;;1.67;;
44130;SDS011;29792;48.726;9.248;2023-04-02T10:20:30;2.03;;;1.00;;
44130;SDS011;29792;48.726;9.248;2023-04-02T10:22:58;1.80;;;0.80;;
44130;SDS011;29792;48.726;9.248;2023-04-02T10:25:25;2.00;;;0.80;;
44130;SDS011;29792;48.726;9.248;2023-04-02T10:27:57;1.85;;;0.95;;
44130;SDS011;29792;48.726;9.248;2023-04-02T10:31:02;1.45;;;0.50;;
44130;SDS011;29792;48.726;9.248;2023-04-02T10:33:41;1.75;;;0.73;;
44130;SDS011;29792;48.726;9.248;2023-04-02T10:36:23;0.50;;;0.40;;
44130;SDS011;29792;48.726;9.248;2023-04-02T10:39:28;0.90;;;0.70;;
44130;SDS011;29792;48.726;9.248;2023-04-02T10:41:59;0.90;;;0.60;;
44130;SDS011;29792;48.726;9.248;2023-04-02T10:44:57;0.30;;;0.20;;
44130;SDS011;29792;48.726;9.248;2023-04-02T10:55:42;0.38;;;0.30;;
44130;SDS011;29792;48.726;9.248;2023-04-02T10:58:15;2.05;;;1.50;;
44130;SDS011;29792;48.726;9.248;2023-04-02T11:00:47;2.08;;;0.95;;
44130;SDS011;29792;48.726;9.248;2023-04-02T11:03:17;0.40;;;0.30;;
44130;SDS011;29792;48.726;9.248;2023-04-02T11:05:54;1.67;;;0.70;;
44130;SDS011;29792;48.726;9.248;2023-04-02T11:08:23;1.00;;;0.68;;
44130;SDS011;29792;48.726;9.248;2023-04-02T11:11:05;1.42;;;0.40;;
44130;SDS011;29792;48.726;9.248;2023-04-02T11:16:13;1.10;;;0.50;;
44130;SDS011;29792;48.726;9.248;2023-04-02T11:18:39;1.20;;;0.30;;
44130;SDS011;29792;48.726;9.248;2023-04-02T11:29:36;0.80;;;0.40;;
44130;SDS011;29792;48.726;9.248;2023-04-02T11:39:57;1.60;;;0.45;;
44130;SDS011;29792;48.726;9.248;2023-04-02T11:42:33;0.50;;;0.40;;
44130;SDS011;29792;48.726;9.248;2023-04-02T11:48:00;4.03;;;0.45;;
44130;SDS011;29792;48.726;9.248;2023-04-02T11:50:48;0.80;;;0.60;;
44130;SDS011;29792;48.726;9.248;2023-04-02T12:10:21;0.80;;;0.43;;
44130;SDS011;29792;48.726;9.248;2023-04-02T12:12:56;1.20;;;0.55;;
44130;SDS011;29792;48.726;9.248;2023-04-02T12:15:29;1.00;;;0.65;;
44130;SDS011;29792;48.726;9.248;2023-04-02T12:18:08;2.53;;;0.60;;
44130;SDS011;29792;48.726;9.248;2023-04-02T12:20:38;0.40;;;0.40;;
44130;SDS011;29792;48.726;9.248;2023-04-02T12:23:03;0.45;;;0.40;;
44130;SDS011;29792;48.726;9.248;2023-04-02T12:25:30;0.68;;;0.40;;
44130;SDS011;29792;48.726;9.248;2023-04-02T12:30:34;0.65;;;0.47;;
44130;SDS011;29792;48.726;9.248;2023-04-02T12:35:54;0.30;;;0.20;;
44130;SDS011;29792;48.726;9.248;2023-04-02T12:38:28;0.68;;;0.47;;
44130;SDS011;29792;48.726;9.248;2023-04-02T12:41:02;0.20;;;0.20;;
44130;SDS011;29792;48.726;9.248;2023-04-02T12:43:34;1.88;;;0.70;;
44130;SDS011;29792;48.726;9.248;2023-04-02T12:46:03;1.10;;;0.88;;
44130;SDS011;29792;48.726;9.248;2023-04-02T12:48:30;0.93;;;0.30;;
44130;SDS011;29792;48.726;9.248;2023-04-02T12:50:57;0.28;;;0.17;;
44130;SDS011;29792;48.726;9.248;2023-04-02T12:53:28;0.30;;;0.20;;
44130;SDS011;29792;48.726;9.248;2023-04-02T12:55:58;0.65;;;0.30;;
44130;SDS011;29792;48.726;9.248;2023-04-02T12:58:24;0.40;;;0.20;;
44130;SDS011;29792;48.726;9.248;2023-04-02T13:01:07;0.20;;;0.20;;
44130;SDS011;29792;48.726;9.248;2023-04-02T13:03:33;0.30;;;0.30;;
44130;SDS011;29792;48.726;9.248;2023-04-02T13:05:58;0.20;;;0.20;;
44130;SDS011;29792;48.726;9.248;2023-04-02T13:08:25;0.55;;;0.20;;
44130;SDS011;29792;48.726;9.248;2023-04-02T13:10:55;0.25;;;0.20;;
44130;SDS011;29792;48.726;9.248;2023-04-02T13:13:25;0.05;;;0.05;;
44130;SDS011;29792;48.726;9.248;2023-04-02T13:18:41;0.20;;;0.20;;
44130;SDS011;29792;48.726;9.248;2023-04-02T13:21:24;1.00;;;0.63;;
44130;SDS011;29792;48.726;9.248;2023-04-02T13:23:51;1.63;;;1.23;;
44130;SDS011;29792;48.726;9.248;2023-04-02T13:26:18;1.38;;;0.95;;
44130;SDS011;29792;48.726;9.248;2023-04-02T13:28:58;0.63;;;0.20;;
44130;SDS011;29792;48.726;9.248;2023-04-02T13:31:25;0.30;;;0.30;;
44130;SDS011;29792;48.726;9.248;2023-04-02T13:33:51;0.43;;;0.25;;
44130;SDS011;29792;48.726;9.248;2023-04-02T13:36:17;0.50;;;0.50;;
44130;SDS011;29792;48.726;9.248;2023-04-02T13:38:42;0.98;;;0.40;;
44130;SDS011;29792;48.726;9.248;2023-04-02T13:41:29;1.20;;;0.88;;
44130;SDS011;29792;48.726;9.248;2023-04-02T13:43:56;1.08;;;0.95;;
44130;SDS011;29792;48.726;9.248;2023-04-02T13:46:25;0.98;;;0.60;;
44130;SDS011;29792;48.726;9.248;2023-04-02T13:48:53;1.98;;;0.70;;
44130;SDS011;29792;48.726;9.248;2023-04-02T13:51:20;0.68;;;0.47;;
44130;SDS011;29792;48.726;9.248;2023-04-02T13:53:48;1.77;;;0.50;;
44130;SDS011;29792;48.726;9.248;2023-04-02T13:56:20;0.68;;;0.60;;
44130;SDS011;29792;48.726;9.248;2023-04-02T13:58:47;0.88;;;0.43;;
44130;SDS011;29792;48.726;9.248;2023-04-02T14:01:12;2.53;;;0.50;;
44130;SDS011;29792;48.726;9.248;2023-04-02T14:03:38;0.88;;;0.50;;
44130;SDS011;29792;48.726;9.248;2023-04-02T14:25:25;3.00;;;1.80;;
44130;SDS011;29792;48.726;9.248;2023-04-02T14:28:17;1.73;;;1.27;;
44130;SDS011;29792;48.726;9.248;2023-04-02T14:36:53;0.80;;;0.73;;
44130;SDS011;29792;48.726;9.248;2023-04-02T14:42:13;0.90;;;0.90;;
44130;SDS011;29792;48.726;9.248;2023-04-02T14:44:43;1.42;;;0.75;;
44130;SDS011;29792;48.726;9.248;2023-04-02T14:47:17;1.23;;;0.70;;
44130;SDS011;29792;48.726;9.248;2023-04-02T14:49:49;1.60;;;0.98;;
44130;SDS011;29792;48.726;9.248;2023-04-02T14:52:19;1.08;;;0.60;;
44130;SDS011;29792;48.726;9.248;2023-04-02T14:54:54;6.35;;;1.00;;
44130;SDS011;29792;48.726;9.248;2023-04-02T14:57:31;1.52;;;0.90;;
44130;SDS011;29792;48.726;9.248;2023-04-02T15:05:46;2.50;;;1.30;;
44130;SDS011;29792;48.726;9.248;2023-04-02T15:08:24;1.73;;;1.23;;
44130;SDS011;29792;48.726;9.248;2023-04-02T15:11:01;2.17;;;1.00;;
44130;SDS011;29792;48.726;9.248;2023-04-02T15:13:30;0.90;;;0.90;;
44130;SDS011;29792;48.726;9.248;2023-04-02T15:16:07;0.82;;;0.70;;
44130;SDS011;29792;48.726;9.248;2023-04-02T15:18:38;1.52;;;1.42;;
44130;SDS011;29792;48.726;9.248;2023-04-02T15:43:33;1.45;;;1.05;;
44130;SDS011;29792;48.726;9.248;2023-04-02T15:51:45;1.98;;;1.23;;
44130;SDS011;29792;48.726;9.248;2023-04-02T15:57:18;2.35;;;2.15;;
44130;SDS011;29792;48.726;9.248;2023-04-02T16:03:26;0.90;;;0.80;;
44130;SDS011;29792;48.726;9.248;2023-04-02T16:08:23;2.72;;;1.52;;
44130;SDS011;29792;48.726;9.248;2023-04-02T16:10:59;1.88;;;1.55;;
44130;SDS011;29792;48.726;9.248;2023-04-02T16:21:42;3.03;;;2.28;;
44130;SDS011;29792;48.726;9.248;2023-04-02T16:24:13;2.90;;;2.28;;
44130;SDS011;29792;48.726;9.248;2023-04-02T16:35:28;1.35;;;1.00;;
44130;SDS011;29792;48.726;9.248;2023-04-02T16:41:09;1.88;;;1.60;;
44130;SDS011;29792;48.726;9.248;2023-04-02T16:46:29;1.42;;;1.17;;
44130;SDS011;29792;48.726;9.248;2023-04-02T16:49:08;1.63;;;1.48;;
44130;SDS011;29792;48.726;9.248;2023-04-02T17:00:03;1.75;;;1.63;;
44130;SDS011;29792;48.726;9.248;2023-04-02T17:05:29;1.40;;;1.30;;
44130;SDS011;29792;48.726;9.248;2023-04-02T17:08:07;2.08;;;1.50;;
44130;SDS011;29792;48.726;9.248;2023-04-02T17:13:24;1.42;;;1.20;;
44130;SDS011;29792;48.726;9.248;2023-04-02T17:16:48;2.25;;;1.73;;
44130;SDS011;29792;48.726;9.248;2023-04-02T17:19:00;1.60;;;1.30;;
44130;SDS011;29792;48.726;9.248;2023-04-02T17:21:27;1.38;;;1.20;;
44130;SDS011;29792;48.726;9.248;2023-04-02T17:23:56;2.53;;;1.65;;
44130;SDS011;29792;48.726;9.248;2023-04-02T17:26:26;1.10;;;1.10;;
44130;SDS011;29792;48.726;9.248;2023-04-02T17:28:56;1.73;;;1.25;;
44130;SDS011;29792;48.726;9.248;2023-04-02T17:31:26;1.00;;;0.80;;
44130;SDS011;29792;48.726;9.248;2023-04-02T17:33:54;1.65;;;1.35;;
44130;SDS011;29792;48.726;9.248;2023-04-02T17:45:12;3.30;;;2.60;;
44130;SDS011;29792;48.726;9.248;2023-04-02T17:47:45;1.58;;;1.25;;
44130;SDS011;29792;48.726;9.248;2023-04-02T17:53:07;2.50;;;1.50;;
44130;SDS011;29792;48.726;9.248;2023-04-02T17:56:05;2.33;;;2.10;;
44130;SDS011;29792;48.726;9.248;2023-04-02T18:07:03;5.22;;;3.92;;
44130;SDS011;29792;48.726;9.248;2023-04-02T18:09:50;2.47;;;2.08;;
44130;SDS011;29792;48.726;9.248;2023-04-02T18:17:58;2.53;;;1.88;;
44130;SDS011;29792;48.726;9.248;2023-04-02T18:20:34;4.05;;;2.78;;
44130;SDS011;29792;48.726;9.248;2023-04-02T18:26:12;2.33;;;2.03;;
44130;SDS011;29792;48.726;9.248;2023-04-02T18:34:33;4.05;;;2.97;;
44130;SDS011;29792;48.726;9.248;2023-04-02T18:40:10;5.88;;;4.50;;
44130;SDS011;29792;48.726;9.248;2023-04-02T18:45:20;5.82;;;3.80;;
44130;SDS011;29792;48.726;9.248;2023-04-02T18:50:35;6.00;;;5.07;;
44130;SDS011;29792;48.726;9.248;2023-04-02T18:53:17;6.13;;;4.53;;
44130;SDS011;29792;48.726;9.248;2023-04-02T18:55:54;3.92;;;3.15;;
44130;SDS011;29792;48.726;9.248;2023-04-02T18:58:24;3.58;;;3.28;;
44130;SDS011;29792;48.726;9.248;2023-04-02T19:00:53;3.28;;;2.97;;
44130;SDS011;29792;48.726;9.248;2023-04-02T19:06:04;4.30;;;3.03;;
44130;SDS011;29792;48.726;9.248;2023-04-02T19:11:17;3.40;;;2.83;;
44130;SDS011;29792;48.726;9.248;2023-04-02T19:14:11;3.40;;;2.65;;
44130;SDS011;29792;48.726;9.248;2023-04-02T19:19:26;3.55;;;3.25;;
44130;SDS011;29792;48.726;9.248;2023-04-02T19:32:36;3.10;;;2.70;;
44130;SDS011;29792;48.726;9.248;2023-04-02T19:35:26;4.78;;;3.13;;
44130;SDS011;29792;48.726;9.248;2023-04-02T19:41:28;3.80;;;2.85;;
44130;SDS011;29792;48.726;9.248;2023-04-02T19:43:45;2.75;;;2.08;;
44130;SDS011;29792;48.726;9.248;2023-04-02T19:46:10;3.80;;;2.65;;
44130;SDS011;29792;48.726;9.248;2023-04-02T19:48:41;2.75;;;2.50;;
44130;SDS011;29792;48.726;9.248;2023-04-02T19:51:09;3.17;;;2.88;;
44130;SDS011;29792;48.726;9.248;2023-04-02T19:53:34;4.68;;;3.17;;
44130;SDS011;29792;48.726;9.248;2023-04-02T19:56:00;4.07;;;2.50;;
44130;SDS011;29792;48.726;9.248;2023-04-02T19:58:32;2.95;;;2.50;;
44130;SDS011;29792;48.726;9.248;2023-04-02T20:00:59;2.72;;;2.33;;
44130;SDS011;29792;48.726;9.248;2023-04-02T20:03:25;1.98;;;1.75;;
44130;SDS011;29792;48.726;9.248;2023-04-02T20:05:50;1.95;;;1.75;;
44130;SDS011;29792;48.726;9.248;2023-04-02T20:08:16;3.25;;;2.25;;
44130;SDS011;29792;48.726;9.248;2023-04-02T20:10:42;3.58;;;2.22;;
44130;SDS011;29792;48.726;9.248;2023-04-02T20:13:07;3.50;;;2.63;;
44130;SDS011;29792;48.726;9.248;2023-04-02T20:15:33;4.63;;;1.98;;
44130;SDS011;29792;48.726;9.248;2023-04-02T20:17:59;3.00;;;2.30;;
44130;SDS011;29792;48.726;9.248;2023-04-02T20:20:24;3.13;;;2.53;;
44130;SDS011;29792;48.726;9.248;2023-04-02T20:22:50;2.30;;;2.10;;
44130;SDS011;29792;48.726;9.248;2023-04-02T20:25:15;2.85;;;2.40;;
44130;SDS011;29792;48.726;9.248;2023-04-02T20:27:40;4.80;;;3.35;;
44130;SDS011;29792;48.726;9.248;2023-04-02T20:30:06;3.95;;;2.80;;
44130;SDS011;29792;48.726;9.248;2023-04-02T20:32:31;3.22;;;2.60;;
44130;SDS011;29792;48.726;9.248;2023-04-02T20:34:57;2.83;;;2.42;;
44130;SDS011;29792;48.726;9.248;2023-04-02T20:37:22;7.15;;;2.70;;
44130;SDS011;29792;48.726;9.248;2023-04-02T20:39:47;4.22;;;2.45;;
44130;SDS011;29792;48.726;9.248;2023-04-02T20:42:13;2.65;;;2.42;;
44130;SDS011;29792;48.726;9.248;2023-04-02T20:44:38;4.00;;;2.67;;
44130;SDS011;29792;48.726;9.248;2023-04-02T20:47:05;4.82;;;2.60;;